Time;durP1;ratioP1;P1;durP2;ratioP2;P2;SDS_P1;SDS_P2;PMS_P1;PMS_P2;Temp;Humidity;BMP_temperature;BMP_pressure;BME280_temperature;BME280_humidity;BME280_pressure;Samples;Min_cycle;Max_cycle;Signal;HPM_P1;HPM_P2
2021/07/02 00:00:52;;;;;;;30.20;17.35;;;14.10;97.30;;;;;;4914590;28;20488;-84
2021/07/02 00:03:17;;;;;;;29.83;15.90;;;14.00;97.20;;;;;;4906651;28;20048;-85
2021/07/02 00:05:43;;;;;;;25.27;15.25;;;14.20;97.40;;;;;;4925106;28;20036;-85
2021/07/02 00:08:09;;;;;;;27.80;14.13;;;14.00;97.30;;;;;;4914004;28;20059;-85
2021/07/02 00:10:34;;;;;;;25.63;15.13;;;14.10;97.40;;;;;;4996914;28;20481;-85
2021/07/02 00:13:00;;;;;;;23.83;14.35;;;14.00;97.60;;;;;;4910322;28;20040;-84
2021/07/02 00:15:25;;;;;;;27.65;17.15;;;14.10;97.40;;;;;;4936864;28;20035;-86
2021/07/02 00:17:51;;;;;;;30.25;16.65;;;14.10;97.30;;;;;;4921566;28;20400;-83
2021/07/02 00:20:16;;;;;;;26.25;14.68;;;14.00;97.30;;;;;;4908922;28;20481;-84
2021/07/02 00:22:42;;;;;;;30.63;18.50;;;14.10;97.20;;;;;;4933584;28;20044;-85
2021/07/02 00:25:08;;;;;;;29.75;16.00;;;14.10;97.20;;;;;;4980468;28;20480;-85
2021/07/02 00:27:33;;;;;;;30.58;17.30;;;14.10;97.50;;;;;;4991851;28;20122;-85
2021/07/02 00:29:59;;;;;;;27.98;14.93;;;14.10;97.30;;;;;;4902893;28;20090;-85
2021/07/02 00:32:24;;;;;;;26.08;13.93;;;14.00;97.40;;;;;;4987995;28;20123;-85
2021/07/02 00:34:50;;;;;;;24.67;14.55;;;14.10;97.20;;;;;;4923543;28;20029;-85
2021/07/02 00:37:15;;;;;;;25.50;14.90;;;14.10;97.10;;;;;;4923251;28;20039;-84
2021/07/02 00:39:41;;;;;;;27.73;14.98;;;14.10;97.20;;;;;;4902484;28;20048;-84
2021/07/02 00:42:06;;;;;;;31.15;15.90;;;14.00;97.20;;;;;;4984353;28;20043;-84
2021/07/02 00:44:46;;;;;;;27.45;14.80;;;14.10;97.30;;;;;;4949331;28;20055;-85
2021/07/02 00:47:12;;;;;;;31.58;18.33;;;14.10;97.20;;;;;;4917342;28;20032;-85
2021/07/02 00:49:37;;;;;;;32.63;18.52;;;14.00;97.40;;;;;;4975385;28;20454;-84
2021/07/02 00:52:04;;;;;;;32.63;20.80;;;14.10;97.40;;;;;;4951562;28;20033;-83
2021/07/02 00:54:30;;;;;;;22.70;14.65;;;13.90;97.70;;;;;;4923263;28;20071;-85
2021/07/02 00:56:56;;;;;;;34.25;18.95;;;13.90;97.30;;;;;;4911519;28;20095;-84
2021/07/02 00:59:22;;;;;;;37.13;21.58;;;14.00;97.50;;;;;;4886750;28;20064;-84
2021/07/02 01:01:47;;;;;;;32.70;19.13;;;13.90;97.20;;;;;;4927687;28;20032;-85
2021/07/02 01:04:13;;;;;;;29.30;16.30;;;13.90;97.50;;;;;;4910394;28;20094;-86
2021/07/02 01:06:39;;;;;;;27.00;16.10;;;14.00;97.60;;;;;;4928222;28;20054;-85
2021/07/02 01:09:05;;;;;;;34.90;16.58;;;14.00;97.60;;;;;;4921367;28;20142;-85
2021/07/02 01:11:32;;;;;;;34.53;19.38;;;14.00;97.40;;;;;;4919683;28;20492;-85
2021/07/02 01:13:57;;;;;;;31.85;16.77;;;14.00;97.80;;;;;;4973527;28;20028;-84
2021/07/02 01:16:23;;;;;;;35.60;19.58;;;13.90;98.00;;;;;;4984712;28;20367;-85
2021/07/02 01:18:48;;;;;;;28.15;15.73;;;14.10;97.90;;;;;;4918592;28;20028;-85
2021/07/02 01:21:14;;;;;;;32.33;17.35;;;14.10;97.60;;;;;;4912634;28;20040;-85
2021/07/02 01:23:39;;;;;;;26.92;15.70;;;14.00;97.60;;;;;;4935759;28;20028;-85
2021/07/02 01:26:05;;;;;;;27.70;16.50;;;14.00;97.50;;;;;;4919780;28;20032;-85
2021/07/02 01:28:31;;;;;;;28.67;17.08;;;14.10;97.50;;;;;;4973459;28;20153;-84
2021/07/02 01:30:56;;;;;;;40.10;18.13;;;14.20;97.60;;;;;;4924380;28;20040;-85
2021/07/02 01:33:22;;;;;;;34.33;18.00;;;14.00;97.60;;;;;;4978134;28;20032;-85
2021/07/02 01:35:47;;;;;;;32.60;18.05;;;14.10;97.50;;;;;;4927657;28;20432;-85
2021/07/02 01:38:13;;;;;;;33.67;19.65;;;14.00;97.40;;;;;;4907952;28;20268;-85
2021/07/02 01:40:38;;;;;;;32.17;15.85;;;14.10;97.80;;;;;;4938346;28;20115;-85
2021/07/02 01:43:04;;;;;;;36.10;19.88;;;13.90;97.50;;;;;;4925021;28;20027;-85
2021/07/02 01:45:30;;;;;;;33.45;19.20;;;14.00;97.50;;;;;;4933334;28;20399;-85
2021/07/02 01:47:55;;;;;;;40.67;20.60;;;14.00;97.50;;;;;;4963841;28;20048;-86
2021/07/02 01:50:25;;;;;;;35.65;18.35;;;13.90;97.70;;;;;;4906874;28;20032;-84
2021/07/02 01:52:50;;;;;;;33.40;17.17;;;14.00;97.90;;;;;;4943383;28;20036;-84
2021/07/02 01:55:16;;;;;;;35.63;18.60;;;14.00;97.80;;;;;;4963907;28;20081;-85
2021/07/02 01:57:42;;;;;;;32.42;18.15;;;14.10;97.80;;;;;;4921868;28;20669;-85
2021/07/02 02:00:08;;;;;;;32.63;17.85;;;14.00;97.80;;;;;;4932702;28;20032;-86
2021/07/02 02:02:34;;;;;;;32.80;18.38;;;14.00;97.70;;;;;;4985282;28;20036;-85
2021/07/02 02:04:59;;;;;;;33.50;18.17;;;14.00;97.70;;;;;;4903114;28;20051;-85
2021/07/02 02:07:25;;;;;;;41.42;22.67;;;14.00;97.60;;;;;;4989473;28;20083;-85
2021/07/02 02:09:50;;;;;;;30.98;16.90;;;14.00;97.60;;;;;;4921098;28;20039;-85
2021/07/02 02:12:16;;;;;;;31.65;18.30;;;14.00;97.70;;;;;;4905622;28;20043;-85
2021/07/02 02:14:41;;;;;;;33.15;17.83;;;14.00;97.70;;;;;;4921474;28;20078;-85
2021/07/02 02:17:07;;;;;;;35.55;17.95;;;14.00;97.80;;;;;;4894462;28;20043;-86
2021/07/02 02:19:33;;;;;;;30.67;18.35;;;14.00;98.10;;;;;;4931670;28;20039;-85
2021/07/02 02:21:58;;;;;;;33.17;17.33;;;13.90;97.90;;;;;;4980930;28;20094;-85
2021/07/02 02:24:24;;;;;;;38.78;19.20;;;13.90;98.10;;;;;;5007397;28;20039;-85
2021/07/02 02:26:49;;;;;;;30.23;18.17;;;13.80;97.70;;;;;;4919691;28;20042;-85
2021/07/02 02:29:15;;;;;;;30.38;16.65;;;13.90;97.70;;;;;;4977858;28;20119;-85
2021/07/02 02:31:40;;;;;;;32.53;17.83;;;13.90;97.70;;;;;;4917273;28;20065;-85
2021/07/02 02:34:06;;;;;;;37.60;18.42;;;14.00;97.80;;;;;;4915918;28;20460;-86
2021/07/02 02:36:31;;;;;;;32.38;17.45;;;13.90;97.60;;;;;;4976932;28;20040;-85
2021/07/02 02:38:57;;;;;;;30.25;17.17;;;13.90;97.90;;;;;;4913546;28;20020;-85
2021/07/02 02:41:23;;;;;;;30.90;16.45;;;13.90;97.70;;;;;;4907543;28;20040;-85
2021/07/02 02:43:49;;;;;;;36.28;20.75;;;13.90;97.60;;;;;;4921558;28;20369;-85
2021/07/02 02:46:14;;;;;;;26.20;16.20;;;14.00;97.80;;;;;;4932806;28;20032;-84
2021/07/02 02:48:40;;;;;;;29.83;16.52;;;13.80;97.70;;;;;;4924701;28;20395;-85
2021/07/02 02:51:05;;;;;;;26.35;16.35;;;13.80;97.70;;;;;;4943047;28;20038;-85
2021/07/02 02:53:31;;;;;;;34.63;18.17;;;13.90;97.70;;;;;;4981101;28;20032;-86
2021/07/02 02:55:57;;;;;;;34.03;18.30;;;14.00;97.80;;;;;;4899064;28;20038;-85
2021/07/02 02:58:22;;;;;;;33.25;17.63;;;13.90;97.60;;;;;;4943303;28;20039;-85
2021/07/02 03:00:48;;;;;;;34.53;20.25;;;13.90;97.30;;;;;;4966258;28;20035;-85
2021/07/02 03:03:13;;;;;;;37.08;16.42;;;13.90;97.80;;;;;;4947631;28;20032;-85
2021/07/02 03:05:39;;;;;;;28.67;17.00;;;13.90;97.60;;;;;;4985036;28;20044;-85
2021/07/02 03:08:04;;;;;;;27.25;15.63;;;13.90;97.60;;;;;;4979571;28;20503;-86
2021/07/02 03:10:30;;;;;;;32.72;17.83;;;13.90;97.90;;;;;;4916823;28;20066;-84
2021/07/02 03:12:56;;;;;;;34.20;17.48;;;13.90;98.00;;;;;;4921326;28;20044;-84
2021/07/02 03:15:22;;;;;;;25.58;14.70;;;13.80;98.20;;;;;;4952858;28;20040;-84
2021/07/02 03:17:48;;;;;;;34.08;18.10;;;13.90;97.70;;;;;;4941937;28;20043;-84
2021/07/02 03:20:13;;;;;;;34.50;16.83;;;13.90;97.90;;;;;;4912765;28;20036;-85
2021/07/02 03:22:41;;;;;;;34.97;17.55;;;13.90;97.80;;;;;;4926951;28;20044;-84
2021/07/02 03:25:07;;;;;;;28.83;15.80;;;13.90;97.80;;;;;;4913934;28;20505;-85
2021/07/02 03:27:32;;;;;;;29.08;16.52;;;13.90;98.00;;;;;;4987281;28;20039;-84
2021/07/02 03:29:58;;;;;;;33.05;17.15;;;13.90;97.80;;;;;;4976321;28;20305;-84
2021/07/02 03:32:24;;;;;;;32.22;16.67;;;13.90;97.90;;;;;;4972055;28;20035;-84
2021/07/02 03:34:50;;;;;;;36.03;16.30;;;13.90;98.00;;;;;;4922160;28;20032;-85
2021/07/02 03:37:16;;;;;;;33.80;17.80;;;13.90;98.10;;;;;;4985205;28;20028;-85
2021/07/02 03:39:41;;;;;;;30.20;16.00;;;13.90;98.20;;;;;;4926490;28;20041;-84
2021/07/02 03:42:07;;;;;;;26.48;16.13;;;13.90;98.00;;;;;;4898720;28;20082;-85
2021/07/02 03:44:33;;;;;;;27.48;16.77;;;14.00;97.70;;;;;;4982485;28;20047;-84
2021/07/02 03:46:58;;;;;;;31.35;16.35;;;13.90;97.90;;;;;;4923156;28;20032;-85
2021/07/02 03:49:24;;;;;;;29.48;16.23;;;13.90;98.00;;;;;;4900021;28;20450;-85
2021/07/02 03:51:49;;;;;;;31.63;17.70;;;14.00;98.00;;;;;;4928979;28;20043;-85
2021/07/02 03:54:15;;;;;;;34.85;17.83;;;14.00;98.20;;;;;;4912061;28;20032;-85
2021/07/02 03:57:10;;;;;;;35.22;18.60;;;13.90;97.80;;;;;;4905648;28;20067;-84
2021/07/02 03:59:26;;;;;;;32.90;18.25;;;13.90;97.80;;;;;;4936545;28;20484;-86
2021/07/02 04:01:52;;;;;;;26.95;14.60;;;13.90;97.90;;;;;;4907305;28;20086;-85
2021/07/02 04:04:17;;;;;;;32.55;15.55;;;13.90;97.80;;;;;;4913311;28;20450;-85
2021/07/02 04:06:43;;;;;;;33.42;15.15;;;13.80;97.70;;;;;;4927881;28;20103;-84
2021/07/02 04:09:08;;;;;;;30.98;16.00;;;13.90;97.80;;;;;;4908541;28;20491;-84
2021/07/02 04:11:34;;;;;;;29.55;15.30;;;13.90;97.80;;;;;;4984045;28;20040;-84
2021/07/02 04:13:59;;;;;;;25.00;14.93;;;13.90;97.80;;;;;;4913495;28;20043;-83
2021/07/02 04:16:25;;;;;;;32.88;16.40;;;13.90;97.80;;;;;;4968566;28;20027;-86
2021/07/02 04:18:50;;;;;;;25.40;14.60;;;13.90;97.90;;;;;;4902660;28;20035;-85
2021/07/02 04:21:16;;;;;;;26.63;15.18;;;13.90;97.40;;;;;;4929316;28;20166;-85
2021/07/02 04:23:41;;;;;;;29.77;18.13;;;14.00;97.60;;;;;;4929157;28;20094;-84
2021/07/02 04:26:07;;;;;;;35.95;17.88;;;13.90;97.90;;;;;;4937427;28;20075;-83
2021/07/02 04:28:32;;;;;;;36.35;16.65;;;14.00;97.90;;;;;;4924820;28;20035;-86
2021/07/02 04:30:58;;;;;;;26.80;13.73;;;14.00;97.90;;;;;;4899020;28;20040;-84
2021/07/02 04:33:23;;;;;;;29.90;14.85;;;14.00;97.70;;;;;;4987639;28;20038;-85
2021/07/02 04:35:49;;;;;;;32.30;14.55;;;14.10;97.60;;;;;;4916503;28;20415;-85
2021/07/02 04:38:14;;;;;;;27.95;14.55;;;14.00;97.50;;;;;;4892985;28;20321;-85
2021/07/02 04:40:40;;;;;;;26.35;14.73;;;14.10;97.60;;;;;;4923969;28;20028;-84
2021/07/02 04:43:05;;;;;;;27.65;14.68;;;14.10;97.40;;;;;;4904653;28;20039;-84
2021/07/02 04:45:31;;;;;;;23.90;13.43;;;14.10;97.40;;;;;;4907052;28;20040;-84
2021/07/02 04:47:56;;;;;;;27.25;15.05;;;14.10;97.30;;;;;;4937672;28;20028;-84
2021/07/02 04:50:22;;;;;;;24.98;14.40;;;14.10;97.30;;;;;;4982833;28;20032;-86
2021/07/02 04:52:47;;;;;;;31.08;15.88;;;14.10;97.50;;;;;;4917205;28;20043;-86
2021/07/02 04:55:13;;;;;;;21.63;13.60;;;14.10;97.40;;;;;;4903445;28;20074;-85
2021/07/02 04:57:39;;;;;;;27.20;16.50;;;14.10;97.20;;;;;;4913799;28;20129;-84
2021/07/02 05:00:05;;;;;;;27.95;14.77;;;14.20;97.60;;;;;;4918887;28;20027;-85
2021/07/02 05:02:30;;;;;;;27.70;14.65;;;14.20;97.70;;;;;;4974712;28;20035;-84
2021/07/02 05:04:56;;;;;;;27.77;15.05;;;14.10;97.50;;;;;;4925807;28;20067;-85
2021/07/02 05:07:22;;;;;;;23.88;13.43;;;14.20;97.60;;;;;;4982097;28;20126;-85
2021/07/02 05:09:47;;;;;;;34.10;16.02;;;14.30;97.70;;;;;;4958167;28;20059;-85
2021/07/02 05:12:13;;;;;;;24.98;14.43;;;14.30;97.70;;;;;;4987983;28;20032;-85
2021/07/02 05:14:39;;;;;;;31.60;16.63;;;14.30;97.40;;;;;;4918797;28;20481;-85
2021/07/02 05:17:05;;;;;;;32.28;17.10;;;14.40;97.80;;;;;;4899149;28;20036;-85
2021/07/02 05:19:31;;;;;;;33.95;18.23;;;14.40;97.60;;;;;;4925626;28;20048;-84
2021/07/02 05:21:56;;;;;;;28.02;15.65;;;14.60;97.70;;;;;;4917065;28;20028;-86
2021/07/02 05:24:22;;;;;;;37.83;16.85;;;14.60;97.50;;;;;;4992928;28;20047;-87
2021/07/02 05:26:47;;;;;;;33.40;16.48;;;14.60;97.60;;;;;;4941947;28;20056;-85
2021/07/02 05:29:13;;;;;;;26.80;15.50;;;14.70;97.60;;;;;;4984092;28;20056;-86
2021/07/02 05:31:38;;;;;;;28.02;14.77;;;14.90;97.00;;;;;;4937040;28;20028;-83
2021/07/02 05:34:04;;;;;;;31.63;16.25;;;14.90;97.20;;;;;;4904916;28;20043;-85
2021/07/02 05:36:29;;;;;;;43.47;18.65;;;15.10;97.80;;;;;;4974711;28;20111;-85
2021/07/02 05:38:55;;;;;;;35.30;17.10;;;15.20;97.90;;;;;;4923327;28;20036;-85
2021/07/02 05:41:20;;;;;;;30.67;17.75;;;15.60;98.60;;;;;;4906887;28;20059;-86
2021/07/02 05:43:48;;;;;;;28.38;14.73;;;15.60;97.70;;;;;;4935406;28;20033;-84
2021/07/02 05:46:14;;;;;;;29.95;16.98;;;15.50;96.40;;;;;;4904228;28;20027;-86
2021/07/02 05:48:39;;;;;;;25.50;15.65;;;15.60;98.20;;;;;;4932455;28;20051;-86
2021/07/02 05:51:05;;;;;;;25.77;15.18;;;15.90;97.30;;;;;;4938152;28;20036;-87
2021/07/02 05:53:31;;;;;;;32.55;17.33;;;16.20;97.10;;;;;;4907293;28;20457;-86
2021/07/02 05:55:56;;;;;;;29.25;16.40;;;16.60;98.60;;;;;;4903455;28;20359;-84
2021/07/02 05:58:22;;;;;;;30.52;16.38;;;16.40;96.70;;;;;;4926647;29;20433;-86
2021/07/02 06:00:47;;;;;;;29.40;13.40;;;16.40;95.80;;;;;;4924954;28;20119;-86
2021/07/02 06:03:13;;;;;;;25.80;15.00;;;16.60;95.50;;;;;;4906013;28;20027;-85
2021/07/02 06:05:38;;;;;;;27.02;16.00;;;16.60;98.30;;;;;;4918735;28;20036;-85
2021/07/02 06:08:05;;;;;;;31.42;16.83;;;17.40;98.60;;;;;;4913348;28;20032;-86
2021/07/02 06:10:30;;;;;;;29.42;15.55;;;17.90;99.00;;;;;;4922367;28;20036;-85
2021/07/02 06:12:56;;;;;;;30.55;15.95;;;17.80;96.60;;;;;;4927631;28;20039;-85
2021/07/02 06:15:22;;;;;;;26.67;14.93;;;17.90;98.50;;;;;;4946803;28;20032;-86
2021/07/02 06:17:52;;;;;;;29.42;14.45;;;18.10;96.50;;;;;;4920423;28;20028;-86
2021/07/02 06:20:18;;;;;;;25.08;14.45;;;18.20;97.80;;;;;;4931110;28;20082;-85
2021/07/02 06:22:44;;;;;;;27.52;14.68;;;18.80;98.30;;;;;;4930420;28;20483;-86
2021/07/02 06:25:10;;;;;;;23.33;15.15;;;18.90;96.70;;;;;;4970173;28;20036;-86
2021/07/02 06:27:36;;;;;;;25.58;14.40;;;19.30;97.90;;;;;;4927369;28;20591;-86
2021/07/02 06:30:03;;;;;;;25.05;13.38;;;19.70;99.10;;;;;;4902394;28;20127;-86
2021/07/02 06:32:28;;;;;;;21.83;11.82;;;19.40;93.70;;;;;;4898310;28;20122;-87
2021/07/02 06:34:54;;;;;;;21.85;13.32;;;18.90;94.00;;;;;;4925892;28;20464;-86
2021/07/02 06:37:20;;;;;;;20.77;11.95;;;19.20;98.90;;;;;;4977963;28;20471;-86
2021/07/02 06:39:45;;;;;;;25.70;13.70;;;19.00;94.30;;;;;;4920531;29;20032;-86
2021/07/02 06:42:11;;;;;;;19.77;12.98;;;19.10;98.00;;;;;;4909487;28;20476;-86
2021/07/02 06:44:36;;;;;;;18.88;10.55;;;20.30;98.70;;;;;;4921611;28;20070;-87
2021/07/02 06:47:02;;;;;;;21.42;11.32;;;20.60;95.10;;;;;;4901866;28;20036;-85
2021/07/02 06:49:27;;;;;;;18.48;10.27;;;20.80;96.60;;;;;;4993451;28;20063;-86
2021/07/02 06:51:53;;;;;;;19.27;10.50;;;21.00;94.70;;;;;;4905651;28;20028;-85
2021/07/02 06:54:19;;;;;;;18.63;10.25;;;21.30;97.60;;;;;;4916046;28;20528;-87
2021/07/02 06:57:00;;;;;;;14.35;8.93;;;21.50;96.30;;;;;;4996002;28;20039;-85
2021/07/02 06:59:26;;;;;;;17.42;9.40;;;20.90;94.70;;;;;;4919577;28;20331;-85
2021/07/02 07:01:52;;;;;;;14.05;8.77;;;20.80;93.40;;;;;;4926520;28;20465;-85
2021/07/02 07:04:18;;;;;;;12.23;8.13;;;21.70;96.60;;;;;;4916482;28;20270;-86
2021/07/02 07:06:43;;;;;;;14.63;5.85;;;21.20;94.20;;;;;;4927552;28;20404;-85
2021/07/02 07:09:09;;;;;;;11.10;6.20;;;21.90;94.60;;;;;;4927907;28;20119;-86
2021/07/02 07:11:34;;;;;;;11.88;7.03;;;22.20;94.40;;;;;;4931775;28;20043;-86
2021/07/02 07:14:00;;;;;;;10.43;7.10;;;22.60;95.80;;;;;;4977368;28;20023;-86
2021/07/02 07:16:25;;;;;;;12.80;6.30;;;23.10;93.70;;;;;;4971560;28;20373;-85
2021/07/02 07:18:51;;;;;;;10.88;6.95;;;23.10;94.90;;;;;;4932535;28;20412;-86
2021/07/02 07:21:16;;;;;;;11.73;6.28;;;23.30;94.40;;;;;;4904728;28;20483;-85
2021/07/02 07:23:43;;;;;;;10.32;6.15;;;23.50;92.70;;;;;;4923454;28;20032;-86
2021/07/02 07:26:08;;;;;;;11.93;5.45;;;23.60;93.20;;;;;;4928551;28;20414;-86
2021/07/02 07:28:34;;;;;;;9.07;5.15;;;23.40;93.80;;;;;;4930745;28;20024;-86
2021/07/02 07:30:59;;;;;;;7.97;5.30;;;23.50;92.70;;;;;;4915329;28;20507;-86
2021/07/02 07:33:25;;;;;;;13.30;5.85;;;23.80;90.70;;;;;;4988916;28;20059;-86
2021/07/02 07:35:51;;;;;;;7.75;4.72;;;23.00;93.20;;;;;;4927577;28;20051;-86
2021/07/02 07:38:18;;;;;;;12.18;5.63;;;23.50;89.50;;;;;;4915993;28;20032;-86
2021/07/02 07:40:43;;;;;;;9.90;4.82;;;23.60;90.00;;;;;;4931906;28;20542;-87
2021/07/02 07:43:09;;;;;;;8.85;5.32;;;24.10;93.50;;;;;;4907672;28;20411;-83
2021/07/02 07:45:34;;;;;;;13.60;5.28;;;24.40;92.10;;;;;;4965888;28;20115;-83
2021/07/02 07:48:00;;;;;;;10.55;5.10;;;24.50;91.70;;;;;;4909189;28;20551;-83
2021/07/02 07:50:28;;;;;;;7.55;4.68;;;24.40;87.40;;;;;;4908865;28;20039;-84
2021/07/02 07:52:59;;;;;;;7.93;5.18;;;24.20;88.20;;;;;;4923359;28;20042;-83
2021/07/02 07:55:26;;;;;;;6.22;4.47;;;24.10;84.30;;;;;;4904192;28;20092;-83
2021/07/02 07:57:52;;;;;;;7.25;5.07;;;23.70;85.90;;;;;;4912423;28;20051;-82
2021/07/02 08:00:18;;;;;;;4.95;3.50;;;24.10;86.60;;;;;;4918491;28;20590;-82
2021/07/02 08:02:44;;;;;;;5.38;3.30;;;23.70;84.30;;;;;;4914576;28;20056;-83
2021/07/02 08:05:10;;;;;;;4.45;3.30;;;23.50;83.60;;;;;;4937557;28;20076;-82
2021/07/02 08:07:40;;;;;;;4.72;2.85;;;24.90;90.50;;;;;;4974400;28;20028;-83
2021/07/02 08:10:09;;;;;;;6.30;3.22;;;24.70;81.10;;;;;;4924444;28;20036;-82
2021/07/02 08:12:34;;;;;;;4.78;3.22;;;24.80;84.50;;;;;;4917547;28;20046;-84
2021/07/02 08:15:00;;;;;;;6.15;3.00;;;25.20;84.30;;;;;;4916541;28;20031;-84
2021/07/02 08:17:29;;;;;;;4.70;2.95;;;25.30;80.30;;;;;;4933240;28;20036;-84
2021/07/02 08:19:56;;;;;;;4.57;2.67;;;25.10;89.10;;;;;;4920831;28;20082;-84
2021/07/02 08:22:25;;;;;;;5.03;3.03;;;26.10;82.50;;;;;;4901274;28;20040;-84
2021/07/02 08:24:50;;;;;;;4.95;2.65;;;26.20;83.30;;;;;;4933798;28;20058;-85
2021/07/02 08:27:16;;;;;;;3.25;2.47;;;26.10;77.90;;;;;;4975651;28;20031;-84
2021/07/02 08:29:42;;;;;;;3.42;2.08;;;25.70;76.00;;;;;;4909492;28;20029;-85
2021/07/02 08:32:07;;;;;;;2.50;1.90;;;25.10;72.90;;;;;;4896373;28;20392;-85
2021/07/02 08:34:33;;;;;;;3.47;2.30;;;25.20;83.30;;;;;;4977550;28;20035;-84
2021/07/02 08:36:59;;;;;;;4.20;2.47;;;26.40;81.00;;;;;;4910526;28;20035;-85
2021/07/02 08:39:24;;;;;;;3.42;1.73;;;27.10;80.10;;;;;;4978277;28;20040;-85
2021/07/02 08:41:53;;;;;;;2.28;1.70;;;26.70;81.80;;;;;;4922852;28;20028;-85
2021/07/02 08:44:18;;;;;;;2.38;2.05;;;26.80;77.80;;;;;;4935887;28;20672;-85
2021/07/02 08:46:47;;;;;;;4.18;1.80;;;27.00;78.00;;;;;;4975830;28;20039;-85
2021/07/02 08:49:12;;;;;;;3.63;1.80;;;27.10;72.90;;;;;;4919893;28;20042;-85
2021/07/02 08:51:38;;;;;;;3.47;2.58;;;27.30;77.40;;;;;;4925041;28;20032;-85
2021/07/02 08:54:04;;;;;;;3.88;1.80;;;27.10;75.90;;;;;;4950021;28;20032;-84
2021/07/02 08:56:29;;;;;;;5.70;2.58;;;27.00;78.40;;;;;;4973029;28;20481;-84
2021/07/02 08:58:55;;;;;;;5.60;2.58;;;27.10;75.50;;;;;;4910816;28;20064;-85
2021/07/02 09:01:38;;;;;;;2.83;2.22;;;27.60;76.50;;;;;;4913250;28;20032;-83
2021/07/02 09:04:23;;;;;;;7.10;2.80;;;27.60;72.40;;;;;;4920610;28;20368;-83
2021/07/02 09:07:01;;;;;;;4.85;2.70;;;27.70;72.30;;;;;;4963727;28;20042;-83
2021/07/02 09:09:55;;;;;;;5.07;2.85;;;27.40;71.80;;;;;;4912465;28;20047;-84
2021/07/02 09:12:28;;;;;;;5.22;2.75;;;27.90;71.90;;;;;;4951321;28;20500;-81
2021/07/02 09:15:14;;;;;;;8.38;2.65;;;27.90;72.00;;;;;;4903165;28;20032;-81
2021/07/02 09:17:49;;;;;;;3.85;2.28;;;28.20;72.40;;;;;;4916481;28;20440;-82
2021/07/02 09:20:15;;;;;;;4.45;2.53;;;28.30;72.40;;;;;;4944252;28;20555;-79
2021/07/02 09:22:58;;;;;;;3.03;2.17;;;28.30;69.00;;;;;;4950694;28;20054;-80
2021/07/02 09:25:34;;;;;;;7.68;2.92;;;28.10;68.10;;;;;;4947181;28;20541;-80
2021/07/02 09:28:05;;;;;;;5.93;2.78;;;28.50;71.70;;;;;;4925233;28;20032;-79
2021/07/02 09:30:38;;;;;;;3.92;2.97;;;29.00;67.70;;;;;;5002293;28;21390;-78
2021/07/02 09:33:14;;;;;;;4.00;2.67;;;29.50;64.10;;;;;;4912826;28;20031;-78
2021/07/02 09:35:47;;;;;;;5.28;2.55;;;29.30;68.60;;;;;;4986451;28;20039;-78
2021/07/02 09:38:14;;;;;;;4.00;2.15;;;29.40;64.50;;;;;;4919986;28;20062;-86
2021/07/02 09:40:39;;;;;;;5.53;2.85;;;29.50;62.30;;;;;;4973775;28;20040;-85
2021/07/02 09:43:16;;;;;;;5.85;2.70;;;28.00;62.20;;;;;;4916643;28;20488;-83
2021/07/02 09:45:49;;;;;;;4.43;3.00;;;29.20;67.10;;;;;;4924670;28;20045;-83
2021/07/02 09:48:16;;;;;;;9.50;2.90;;;29.40;67.20;;;;;;4923487;28;20040;-85
2021/07/02 09:50:47;;;;;;;3.65;2.55;;;29.50;68.00;;;;;;4927864;28;20051;-82
2021/07/02 09:53:16;;;;;;;5.57;2.25;;;29.10;67.00;;;;;;4945261;28;20399;-85
2021/07/02 09:55:47;;;;;;;5.65;2.83;;;28.80;60.60;;;;;;4979039;28;20032;-82
2021/07/02 09:58:17;;;;;;;5.10;2.72;;;29.50;68.70;;;;;;4943349;28;20051;-83
2021/07/02 10:00:47;;;;;;;4.38;2.45;;;29.60;62.30;;;;;;4920346;28;20426;-84
2021/07/02 10:03:13;;;;;;;5.68;2.67;;;29.20;63.80;;;;;;4931217;28;20035;-83
2021/07/02 10:06:02;;;;;;;5.03;2.47;;;30.20;63.50;;;;;;4989914;28;20484;-81
2021/07/02 10:08:28;;;;;;;3.67;2.13;;;30.30;63.60;;;;;;4927123;28;20458;-84
2021/07/02 10:10:54;;;;;;;5.25;3.22;;;29.60;60.60;;;;;;4944617;28;20557;-84
2021/07/02 10:13:23;;;;;;;5.88;3.08;;;29.50;61.90;;;;;;4939201;28;20629;-83
2021/07/02 10:15:49;;;;;;;3.85;2.80;;;29.80;64.20;;;;;;4931358;28;20380;-83
2021/07/02 10:18:15;;;;;;;7.43;3.15;;;30.30;60.10;;;;;;4927192;28;20043;-82
2021/07/02 10:20:41;;;;;;;3.45;2.33;;;30.40;59.60;;;;;;4902610;28;20105;-83
2021/07/02 10:23:07;;;;;;;3.50;2.67;;;30.20;61.40;;;;;;4932938;28;20027;-84
2021/07/02 10:25:33;;;;;;;3.97;2.58;;;29.60;58.20;;;;;;4939613;28;20522;-82
2021/07/02 10:27:58;;;;;;;4.25;2.42;;;29.10;58.80;;;;;;4901969;28;20063;-83
2021/07/02 10:30:24;;;;;;;4.68;2.97;;;28.40;59.00;;;;;;4931363;28;20086;-83
2021/07/02 10:32:55;;;;;;;5.28;2.60;;;29.10;65.20;;;;;;4909876;28;20039;-84
2021/07/02 10:35:21;;;;;;;4.95;2.47;;;30.00;60.20;;;;;;4975910;28;20036;-84
2021/07/02 10:37:48;;;;;;;2.42;2.22;;;29.80;58.10;;;;;;4925814;28;20455;-84
2021/07/02 10:40:35;;;;;;;4.53;2.63;;;29.20;58.40;;;;;;4920071;28;20039;-84
2021/07/02 10:43:15;;;;;;;6.10;2.70;;;29.60;60.10;;;;;;4981013;28;20131;-84
2021/07/02 10:46:11;;;;;;;3.83;2.63;;;29.90;59.20;;;;;;4989273;28;20124;-84
2021/07/02 10:48:53;;;;;;;3.70;2.80;;;30.00;59.20;;;;;;4925805;28;20504;-84
2021/07/02 10:51:30;;;;;;;5.45;3.22;;;29.60;59.20;;;;;;4922311;28;20024;-84
2021/07/02 10:54:18;;;;;;;4.55;2.95;;;29.20;58.50;;;;;;4944451;28;20025;-82
2021/07/02 10:56:49;;;;;;;4.78;3.50;;;29.70;57.80;;;;;;4931608;28;20036;-83
2021/07/02 10:59:16;;;;;;;5.28;3.25;;;29.80;57.40;;;;;;4928192;28;20036;-84
2021/07/02 11:02:12;;;;;;;5.57;3.65;;;29.60;58.40;;;;;;4938435;28;20040;-84
2021/07/02 11:04:41;;;;;;;6.68;3.97;;;29.70;58.10;;;;;;4945992;28;20089;-84
2021/07/02 11:07:15;;;;;;;7.72;4.03;;;29.70;58.40;;;;;;5006432;28;20119;-85
2021/07/02 11:09:44;;;;;;;6.53;4.57;;;30.10;57.80;;;;;;4927424;28;20429;-84
2021/07/02 11:12:11;;;;;;;6.00;3.85;;;30.70;56.50;;;;;;4926162;28;20043;-84
2021/07/02 11:14:52;;;;;;;4.63;3.75;;;30.70;57.00;;;;;;4984981;28;20483;-83
2021/07/02 11:17:39;;;;;;;6.65;3.63;;;31.00;56.70;;;;;;4929613;28;20496;-84
2021/07/02 11:20:06;;;;;;;5.25;3.00;;;31.10;56.70;;;;;;4915362;28;20120;-83
2021/07/02 11:22:34;;;;;;;5.15;4.15;;;31.00;55.90;;;;;;4920319;28;20090;-82
2021/07/02 11:25:14;;;;;;;4.25;3.17;;;31.40;54.20;;;;;;4932537;28;20111;-82
2021/07/02 11:30:35;;;;;;;6.13;3.85;;;31.30;55.20;;;;;;4931893;28;20042;-81
2021/07/02 11:33:02;;;;;;;5.70;3.95;;;31.50;54.70;;;;;;4928764;28;20074;-81
2021/07/02 11:35:28;;;;;;;4.03;3.63;;;31.40;54.50;;;;;;4971883;28;20032;-82
2021/07/02 11:38:02;;;;;;;7.30;4.10;;;31.30;55.60;;;;;;4929189;28;20035;-82
2021/07/02 11:40:28;;;;;;;4.32;3.00;;;31.20;56.00;;;;;;4932963;28;20484;-81
2021/07/02 11:42:54;;;;;;;5.63;3.22;;;31.80;54.90;;;;;;4928535;28;20029;-80
2021/07/02 11:45:21;;;;;;;4.07;3.08;;;31.80;55.80;;;;;;4895865;28;20321;-79
2021/07/02 11:47:46;;;;;;;8.23;3.50;;;31.80;54.20;;;;;;4933510;28;20036;-79
2021/07/02 11:50:12;;;;;;;4.93;3.80;;;31.70;54.90;;;;;;4981783;28;20104;-80
2021/07/02 11:52:37;;;;;;;4.78;3.13;;;31.90;53.70;;;;;;4985258;28;20039;-80
2021/07/02 11:55:03;;;;;;;5.78;3.60;;;31.70;53.90;;;;;;4891262;28;20043;-80
2021/07/02 11:57:28;;;;;;;4.40;3.40;;;31.80;54.80;;;;;;4942302;28;20062;-79
2021/07/02 12:00:04;;;;;;;6.32;4.00;;;32.30;53.80;;;;;;4952657;28;20121;-80
2021/07/02 12:02:29;;;;;;;5.15;3.72;;;32.90;51.30;;;;;;4929876;28;20503;-80
2021/07/02 12:05:06;;;;;;;5.88;3.90;;;33.00;51.70;;;;;;4924433;28;20043;-79
2021/07/02 12:07:31;;;;;;;5.38;3.35;;;32.90;53.90;;;;;;4913416;28;20040;-79
2021/07/02 12:09:57;;;;;;;7.60;3.63;;;32.70;53.40;;;;;;4921467;28;20036;-80
2021/07/02 12:12:22;;;;;;;7.28;4.53;;;33.20;52.30;;;;;;4915615;29;20186;-79
2021/07/02 12:14:49;;;;;;;6.82;4.35;;;33.50;51.20;;;;;;4934809;28;20155;-79
2021/07/02 12:17:15;;;;;;;8.18;3.38;;;33.40;51.30;;;;;;4935579;28;20118;-79
2021/07/02 12:19:41;;;;;;;6.32;3.88;;;33.20;51.30;;;;;;4926631;28;20035;-79
2021/07/02 12:22:11;;;;;;;7.32;4.85;;;33.40;51.50;;;;;;4925089;28;20030;-80
2021/07/02 12:24:38;;;;;;;6.22;4.38;;;33.30;50.70;;;;;;4986980;28;20551;-80
2021/07/02 12:27:12;;;;;;;5.78;3.80;;;33.50;49.00;;;;;;4987081;28;20036;-79
2021/07/02 12:29:37;;;;;;;5.43;4.22;;;33.60;50.60;;;;;;4948835;28;20400;-79
2021/07/02 12:32:04;;;;;;;6.45;5.28;;;33.60;51.20;;;;;;4928505;28;20032;-79
2021/07/02 12:34:35;;;;;;;6.43;4.40;;;33.60;50.40;;;;;;5001892;28;20029;-79
2021/07/02 12:37:05;;;;;;;7.30;4.82;;;33.80;49.70;;;;;;4937707;28;20184;-80
2021/07/02 12:39:34;;;;;;;7.15;4.40;;;33.90;49.30;;;;;;4970522;28;20036;-79